KSCF

South Marsh 268

South Marsh 268, Louisiana, USA
METAR KSCF 202355Z AUTO 23006G11KT 10SM FEW023 30/24 A3002 RMK A01
Observed Flight Rules
Aug-20 @ 23:55 UTC (13 minutes ago) Visual Flight Rules
Wind Visibility Clouds
230° at 6 knots
 Gusting to 11 knots
10 miles
  • Few at 2,300' AGL
Temperatures Readings
Current 30°C / 86°F
Dewpoint 24°C / 75°F
Humidity 70%
Altimeter 30.02" Hg
Pressure 1017 hPa
Elevation 8
METAR KSCF 202355Z AUTO 23006G11KT 10SM FEW023 30/24 A3002 RMK A01
Observed Flight Rules
Aug-20 @ 23:55 UTC
(13 minutes ago)
VFR
Wind Visibility
230° at 6 knots
 Gusting to 11 knots
10 miles
Clouds
  • Few at 2,300' AGL
Temperature Dewpoint
30°C / 86°F 24°C / 75°F
Humidity Altimeter Pressure
70% 30.02" Hg 1017 hPa